Ashford, WA

8:05 AM PST on December 10, 2016 (GMT -0800)
Alpine Village | | Change Station

Elev 1842 ft 46.76 °N, 121.99 °W | Updated 21 seconds ago

Overcast
Overcast
33.3 °F
Feels Like 33 °F
N
0.0
Wind Variable Wind from North
Gusts 0.0 mph

Today
High -- | Low -- °F
--% Chance of Precip.
Yesterday
High -- | Low -- °F
Precip. -- in
Pressure 29.87 in
Visibility 6.0 miles
Clouds Few 600 ft
Scattered Clouds 4400 ft
Mostly Cloudy 5500 ft
Windchill 33 °F
Dew Point 31 °F
Humidity 91%
Rainfall 0.00 in
Snow Depth Not available.
7:42 AM 4:19 PM
Waxing Gibbous, 84% visible
METAR KPLU 101555Z AUTO 00000KT 6SM BR FEW006 SCT044 BKN055 03/03 A2987 RMK AO2
Pressure 29.87 in
Visibility 6.0 miles
Clouds Few 600 ft
Scattered Clouds 4400 ft
Mostly Cloudy 5500 ft
Windchill 33 °F
Dew Point 31 °F
Humidity 91%
Rainfall 0.00 in
Snow Depth Not available.
7:42 AM 4:19 PM
Waxing Gibbous, 84% visible
METAR KPLU 101555Z AUTO 00000KT 6SM BR FEW006 SCT044 BKN055 03/03 A2987 RMK AO2

10-Day Weather Forecast

Almanac

Astronomy

Dec. 10, 2016 Rise Set
Actual Time
Civil Twilight
Nautical Twilight
Astronomical Twilight
Moon
Length of Visible Light
Length of Day
Tomorrow will be .
, % of the Moon is Illuminated

Today's Extremes

State Highs State Lows

Community

WunderPhotos

Upload Photos

1,956,569 photos uploaded!

WunderBlog® & News

Nearby

Air Quality

  Air Quality AQ Index Pollutant
Not available.

Snow Depth

Station Depth Elevation

Earthquake Activity

City Distance Mag. Time & Date
Minimum magnitude displayed is 2.5.

Coastal Water Temperatures

Place Temperature

Stations

Nearby Weather Stations

Station Location Temp. Windchill Dew Point Humidity Wind Precip. Elev Updated Type
                   

Watches & Warnings

There are currently no watches in effect.